sensor_id;sensor_type;location;lat;lon;timestamp;temperature;humidity
29775;DHT22;16676;51.202;6.774;2023-03-31T00:01:51;19.10;70.70
29775;DHT22;16676;51.202;6.774;2023-03-31T00:05:54;19.10;70.80
29775;DHT22;16676;51.202;6.774;2023-03-31T00:09:57;19.10;70.70
29775;DHT22;16676;51.202;6.774;2023-03-31T00:14:01;19.10;70.60
29775;DHT22;16676;51.202;6.774;2023-03-31T00:18:05;19.10;70.60
29775;DHT22;16676;51.202;6.774;2023-03-31T00:22:07;19.10;70.80
29775;DHT22;16676;51.202;6.774;2023-03-31T00:26:09;19.10;70.80
29775;DHT22;16676;51.202;6.774;2023-03-31T00:30:12;19.10;70.50
29775;DHT22;16676;51.202;6.774;2023-03-31T00:34:16;19.10;70.60
29775;DHT22;16676;51.202;6.774;2023-03-31T00:38:18;19.10;70.60
29775;DHT22;16676;51.202;6.774;2023-03-31T00:42:21;19.00;70.40
29775;DHT22;16676;51.202;6.774;2023-03-31T00:46:28;19.10;70.40
29775;DHT22;16676;51.202;6.774;2023-03-31T00:50:36;19.00;70.30
29775;DHT22;16676;51.202;6.774;2023-03-31T00:54:39;19.00;70.30
29775;DHT22;16676;51.202;6.774;2023-03-31T00:58:43;19.00;70.50
29775;DHT22;16676;51.202;6.774;2023-03-31T01:02:49;19.00;70.40
29775;DHT22;16676;51.202;6.774;2023-03-31T01:07:01;19.00;70.30
29775;DHT22;16676;51.202;6.774;2023-03-31T01:11:05;19.00;70.40
29775;DHT22;16676;51.202;6.774;2023-03-31T01:15:08;19.00;70.40
29775;DHT22;16676;51.202;6.774;2023-03-31T01:19:18;19.00;70.40
29775;DHT22;16676;51.202;6.774;2023-03-31T01:23:40;19.00;70.60
29775;DHT22;16676;51.202;6.774;2023-03-31T01:27:54;19.00;70.30
29775;DHT22;16676;51.202;6.774;2023-03-31T01:41:07;18.90;70.60
29775;DHT22;16676;51.202;6.774;2023-03-31T01:45:20;19.00;70.70
29775;DHT22;16676;51.202;6.774;2023-03-31T01:49:28;19.00;70.80
29775;DHT22;16676;51.202;6.774;2023-03-31T01:53:43;18.90;70.60
29775;DHT22;16676;51.202;6.774;2023-03-31T01:57:53;19.00;70.70
29775;DHT22;16676;51.202;6.774;2023-03-31T02:02:00;18.90;70.60
29775;DHT22;16676;51.202;6.774;2023-03-31T02:06:04;18.90;70.50
29775;DHT22;16676;51.202;6.774;2023-03-31T02:10:11;18.90;70.50
29775;DHT22;16676;51.202;6.774;2023-03-31T02:14:18;18.90;70.60
29775;DHT22;16676;51.202;6.774;2023-03-31T02:18:24;18.90;70.80
29775;DHT22;16676;51.202;6.774;2023-03-31T02:22:30;18.90;70.60
29775;DHT22;16676;51.202;6.774;2023-03-31T02:26:36;18.90;70.60
29775;DHT22;16676;51.202;6.774;2023-03-31T02:30:45;18.90;70.90
29775;DHT22;16676;51.202;6.774;2023-03-31T02:34:49;18.90;70.80
29775;DHT22;16676;51.202;6.774;2023-03-31T02:38:55;18.90;70.70
29775;DHT22;16676;51.202;6.774;2023-03-31T02:42:58;18.90;70.90
29775;DHT22;16676;51.202;6.774;2023-03-31T02:47:02;18.90;70.80
29775;DHT22;16676;51.202;6.774;2023-03-31T02:55:54;18.90;70.90
29775;DHT22;16676;51.202;6.774;2023-03-31T03:00:07;18.90;70.90
29775;DHT22;16676;51.202;6.774;2023-03-31T03:04:23;18.80;70.90
29775;DHT22;16676;51.202;6.774;2023-03-31T03:08:43;18.90;70.90
29775;DHT22;16676;51.202;6.774;2023-03-31T03:12:59;18.80;70.70
29775;DHT22;16676;51.202;6.774;2023-03-31T03:17:09;18.80;70.70
29775;DHT22;16676;51.202;6.774;2023-03-31T03:21:14;18.80;70.70
29775;DHT22;16676;51.202;6.774;2023-03-31T03:25:17;18.80;70.90
29775;DHT22;16676;51.202;6.774;2023-03-31T03:29:20;18.80;71.00
29775;DHT22;16676;51.202;6.774;2023-03-31T03:33:22;18.80;71.00
29775;DHT22;16676;51.202;6.774;2023-03-31T03:37:25;18.80;70.90
29775;DHT22;16676;51.202;6.774;2023-03-31T03:41:27;18.80;71.20
29775;DHT22;16676;51.202;6.774;2023-03-31T03:45:29;18.80;71.00
29775;DHT22;16676;51.202;6.774;2023-03-31T03:49:31;18.80;70.60
29775;DHT22;16676;51.202;6.774;2023-03-31T03:53:34;18.80;71.60
29775;DHT22;16676;51.202;6.774;2023-03-31T03:57:36;18.80;71.00
29775;DHT22;16676;51.202;6.774;2023-03-31T04:01:38;18.70;71.00
29775;DHT22;16676;51.202;6.774;2023-03-31T04:05:41;18.80;70.90
29775;DHT22;16676;51.202;6.774;2023-03-31T04:09:44;18.80;70.70
29775;DHT22;16676;51.202;6.774;2023-03-31T04:13:46;18.80;70.80
29775;DHT22;16676;51.202;6.774;2023-03-31T04:17:48;18.70;70.70
29775;DHT22;16676;51.202;6.774;2023-03-31T04:21:54;18.80;71.00
29775;DHT22;16676;51.202;6.774;2023-03-31T04:26:03;18.70;71.40
29775;DHT22;16676;51.202;6.774;2023-03-31T04:30:09;18.70;71.20
29775;DHT22;16676;51.202;6.774;2023-03-31T04:34:12;18.70;71.50
29775;DHT22;16676;51.202;6.774;2023-03-31T04:38:16;18.80;71.00
29775;DHT22;16676;51.202;6.774;2023-03-31T04:42:20;18.80;70.90
29775;DHT22;16676;51.202;6.774;2023-03-31T04:46:24;18.70;71.00
29775;DHT22;16676;51.202;6.774;2023-03-31T04:50:27;18.80;71.20
29775;DHT22;16676;51.202;6.774;2023-03-31T04:54:29;18.80;71.50
29775;DHT22;16676;51.202;6.774;2023-03-31T04:58:32;18.80;73.20
29775;DHT22;16676;51.202;6.774;2023-03-31T05:02:34;18.90;73.00
29775;DHT22;16676;51.202;6.774;2023-03-31T05:06:36;18.90;74.10
29775;DHT22;16676;51.202;6.774;2023-03-31T05:10:38;18.90;73.80
29775;DHT22;16676;51.202;6.774;2023-03-31T05:14:41;19.00;73.80
29775;DHT22;16676;51.202;6.774;2023-03-31T05:18:43;19.00;74.40
29775;DHT22;16676;51.202;6.774;2023-03-31T05:22:46;19.00;75.10
29775;DHT22;16676;51.202;6.774;2023-03-31T05:26:48;19.00;75.10
29775;DHT22;16676;51.202;6.774;2023-03-31T05:30:53;19.00;75.00
29775;DHT22;16676;51.202;6.774;2023-03-31T05:34:55;19.00;74.50
29775;DHT22;16676;51.202;6.774;2023-03-31T05:38:57;19.00;75.10
29775;DHT22;16676;51.202;6.774;2023-03-31T05:42:59;19.00;75.10
29775;DHT22;16676;51.202;6.774;2023-03-31T05:47:02;18.90;74.70
29775;DHT22;16676;51.202;6.774;2023-03-31T05:51:05;18.90;73.80
29775;DHT22;16676;51.202;6.774;2023-03-31T05:55:08;18.90;74.30
29775;DHT22;16676;51.202;6.774;2023-03-31T05:59:10;18.90;72.80
29775;DHT22;16676;51.202;6.774;2023-03-31T06:03:13;18.90;73.70
29775;DHT22;16676;51.202;6.774;2023-03-31T06:07:15;18.90;75.80
29775;DHT22;16676;51.202;6.774;2023-03-31T06:11:19;18.90;75.90
29775;DHT22;16676;51.202;6.774;2023-03-31T06:15:22;18.90;75.00
29775;DHT22;16676;51.202;6.774;2023-03-31T06:19:25;18.90;75.60
29775;DHT22;16676;51.202;6.774;2023-03-31T06:23:27;18.90;75.30
29775;DHT22;16676;51.202;6.774;2023-03-31T06:27:29;18.90;75.50
29775;DHT22;16676;51.202;6.774;2023-03-31T06:31:31;18.90;75.30
29775;DHT22;16676;51.202;6.774;2023-03-31T06:35:36;19.00;75.10
29775;DHT22;16676;51.202;6.774;2023-03-31T06:39:38;18.90;75.10
29775;DHT22;16676;51.202;6.774;2023-03-31T06:43:40;19.00;74.70
29775;DHT22;16676;51.202;6.774;2023-03-31T06:47:43;19.00;74.60
29775;DHT22;16676;51.202;6.774;2023-03-31T06:51:46;19.00;74.60
29775;DHT22;16676;51.202;6.774;2023-03-31T06:55:48;19.00;74.60
29775;DHT22;16676;51.202;6.774;2023-03-31T06:59:50;19.00;74.30
29775;DHT22;16676;51.202;6.774;2023-03-31T07:03:52;19.00;74.60
29775;DHT22;16676;51.202;6.774;2023-03-31T07:07:56;19.10;74.70
29775;DHT22;16676;51.202;6.774;2023-03-31T07:11:58;19.10;74.80
29775;DHT22;16676;51.202;6.774;2023-03-31T07:16:00;19.10;74.60
29775;DHT22;16676;51.202;6.774;2023-03-31T07:20:05;19.10;74.80
29775;DHT22;16676;51.202;6.774;2023-03-31T07:24:11;19.20;74.50
29775;DHT22;16676;51.202;6.774;2023-03-31T07:28:14;19.20;74.50
29775;DHT22;16676;51.202;6.774;2023-03-31T07:32:15;19.20;74.50
29775;DHT22;16676;51.202;6.774;2023-03-31T07:36:18;19.20;74.70
29775;DHT22;16676;51.202;6.774;2023-03-31T07:40:23;19.20;74.40
29775;DHT22;16676;51.202;6.774;2023-03-31T07:44:25;19.20;74.30
29775;DHT22;16676;51.202;6.774;2023-03-31T07:48:27;19.20;74.20
29775;DHT22;16676;51.202;6.774;2023-03-31T07:52:29;19.60;72.80
29775;DHT22;16676;51.202;6.774;2023-03-31T07:56:32;19.70;72.10
29775;DHT22;16676;51.202;6.774;2023-03-31T08:00:35;19.60;72.60
29775;DHT22;16676;51.202;6.774;2023-03-31T08:04:36;19.60;72.90
29775;DHT22;16676;51.202;6.774;2023-03-31T08:08:41;19.50;73.30
29775;DHT22;16676;51.202;6.774;2023-03-31T08:12:45;19.50;73.30
29775;DHT22;16676;51.202;6.774;2023-03-31T08:16:46;19.50;73.50
29775;DHT22;16676;51.202;6.774;2023-03-31T08:20:48;19.50;73.50
29775;DHT22;16676;51.202;6.774;2023-03-31T08:24:50;19.50;73.70
29775;DHT22;16676;51.202;6.774;2023-03-31T08:28:54;19.40;73.80
29775;DHT22;16676;51.202;6.774;2023-03-31T08:32:58;19.40;74.00
29775;DHT22;16676;51.202;6.774;2023-03-31T08:37:00;19.40;74.00
29775;DHT22;16676;51.202;6.774;2023-03-31T08:41:03;19.40;74.00
29775;DHT22;16676;51.202;6.774;2023-03-31T08:45:13;19.40;74.00
29775;DHT22;16676;51.202;6.774;2023-03-31T08:49:18;19.40;74.00
29775;DHT22;16676;51.202;6.774;2023-03-31T08:53:25;19.40;73.80
29775;DHT22;16676;51.202;6.774;2023-03-31T08:57:31;19.60;73.60
29775;DHT22;16676;51.202;6.774;2023-03-31T09:01:43;19.60;73.40
29775;DHT22;16676;51.202;6.774;2023-03-31T09:05:52;19.70;73.10
29775;DHT22;16676;51.202;6.774;2023-03-31T09:10:02;19.70;73.10
29775;DHT22;16676;51.202;6.774;2023-03-31T09:14:19;19.70;72.80
29775;DHT22;16676;51.202;6.774;2023-03-31T09:18:29;19.70;73.00
29775;DHT22;16676;51.202;6.774;2023-03-31T09:22:33;19.70;73.10
29775;DHT22;16676;51.202;6.774;2023-03-31T09:26:41;19.70;73.10
29775;DHT22;16676;51.202;6.774;2023-03-31T09:30:45;19.70;72.90
29775;DHT22;16676;51.202;6.774;2023-03-31T09:34:52;19.80;72.90
29775;DHT22;16676;51.202;6.774;2023-03-31T09:38:56;19.80;72.90
29775;DHT22;16676;51.202;6.774;2023-03-31T09:43:04;19.90;72.70
29775;DHT22;16676;51.202;6.774;2023-03-31T09:47:08;19.80;72.50
29775;DHT22;16676;51.202;6.774;2023-03-31T09:51:17;19.90;72.40
29775;DHT22;16676;51.202;6.774;2023-03-31T09:55:22;19.90;72.50
29775;DHT22;16676;51.202;6.774;2023-03-31T09:59:30;19.90;72.50
29775;DHT22;16676;51.202;6.774;2023-03-31T10:03:44;19.90;72.50
29775;DHT22;16676;51.202;6.774;2023-03-31T10:07:49;19.90;72.40
29775;DHT22;16676;51.202;6.774;2023-03-31T10:11:54;19.80;71.70
29775;DHT22;16676;51.202;6.774;2023-03-31T10:16:02;19.70;71.50
29775;DHT22;16676;51.202;6.774;2023-03-31T10:20:18;19.70;71.30
29775;DHT22;16676;51.202;6.774;2023-03-31T10:24:21;19.70;71.20
29775;DHT22;16676;51.202;6.774;2023-03-31T10:28:24;19.70;70.80
29775;DHT22;16676;51.202;6.774;2023-03-31T10:32:27;19.70;70.50
29775;DHT22;16676;51.202;6.774;2023-03-31T10:36:30;19.60;66.90
29775;DHT22;16676;51.202;6.774;2023-03-31T10:40:34;19.50;65.80
29775;DHT22;16676;51.202;6.774;2023-03-31T10:44:37;19.40;64.40
29775;DHT22;16676;51.202;6.774;2023-03-31T10:48:40;19.20;63.20
29775;DHT22;16676;51.202;6.774;2023-03-31T10:52:46;18.90;61.70
29775;DHT22;16676;51.202;6.774;2023-03-31T10:56:52;18.80;63.00
29775;DHT22;16676;51.202;6.774;2023-03-31T11:01:03;19.00;64.30
29775;DHT22;16676;51.202;6.774;2023-03-31T11:05:13;19.00;64.30
29775;DHT22;16676;51.202;6.774;2023-03-31T11:09:30;19.10;64.90
29775;DHT22;16676;51.202;6.774;2023-03-31T11:13:40;19.10;65.20
29775;DHT22;16676;51.202;6.774;2023-03-31T11:17:57;19.10;65.60
29775;DHT22;16676;51.202;6.774;2023-03-31T11:22:07;19.20;65.80
29775;DHT22;16676;51.202;6.774;2023-03-31T11:26:15;19.20;65.90
29775;DHT22;16676;51.202;6.774;2023-03-31T11:30:23;19.20;66.00
29775;DHT22;16676;51.202;6.774;2023-03-31T11:34:40;19.20;66.60
29775;DHT22;16676;51.202;6.774;2023-03-31T11:38:55;19.30;67.10
29775;DHT22;16676;51.202;6.774;2023-03-31T11:43:02;19.60;66.90
29775;DHT22;16676;51.202;6.774;2023-03-31T11:47:09;19.80;66.60
29775;DHT22;16676;51.202;6.774;2023-03-31T11:51:17;19.90;66.40
29775;DHT22;16676;51.202;6.774;2023-03-31T11:55:22;20.10;67.10
29775;DHT22;16676;51.202;6.774;2023-03-31T11:59:27;20.20;66.00
29775;DHT22;16676;51.202;6.774;2023-03-31T12:03:37;20.40;66.10
29775;DHT22;16676;51.202;6.774;2023-03-31T12:07:48;20.50;67.00
29775;DHT22;16676;51.202;6.774;2023-03-31T12:11:56;20.60;68.70
29775;DHT22;16676;51.202;6.774;2023-03-31T12:16:01;20.70;70.10
29775;DHT22;16676;51.202;6.774;2023-03-31T12:20:11;20.70;70.30
29775;DHT22;16676;51.202;6.774;2023-03-31T12:24:15;20.70;71.70
29775;DHT22;16676;51.202;6.774;2023-03-31T12:28:17;20.70;72.50
29775;DHT22;16676;51.202;6.774;2023-03-31T12:32:22;20.70;72.60
29775;DHT22;16676;51.202;6.774;2023-03-31T12:36:41;20.80;72.80
29775;DHT22;16676;51.202;6.774;2023-03-31T12:40:57;20.80;73.00
29775;DHT22;16676;51.202;6.774;2023-03-31T12:45:06;20.80;73.90
29775;DHT22;16676;51.202;6.774;2023-03-31T12:49:42;20.80;74.00
29775;DHT22;16676;51.202;6.774;2023-03-31T12:53:59;20.80;74.50
29775;DHT22;16676;51.202;6.774;2023-03-31T12:58:44;20.80;74.60
29775;DHT22;16676;51.202;6.774;2023-03-31T13:02:47;20.80;75.00
29775;DHT22;16676;51.202;6.774;2023-03-31T13:06:54;20.80;75.50
29775;DHT22;16676;51.202;6.774;2023-03-31T13:10:58;20.70;74.90
29775;DHT22;16676;51.202;6.774;2023-03-31T13:15:03;20.70;75.90
29775;DHT22;16676;51.202;6.774;2023-03-31T13:19:06;20.70;74.70
29775;DHT22;16676;51.202;6.774;2023-03-31T13:23:17;20.70;76.00
29775;DHT22;16676;51.202;6.774;2023-03-31T13:27:32;20.70;74.50
29775;DHT22;16676;51.202;6.774;2023-03-31T13:36:34;20.70;76.00
29775;DHT22;16676;51.202;6.774;2023-03-31T13:41:00;20.80;74.50
29775;DHT22;16676;51.202;6.774;2023-03-31T13:45:13;20.80;75.00
29775;DHT22;16676;51.202;6.774;2023-03-31T13:49:55;20.80;75.30
29775;DHT22;16676;51.202;6.774;2023-03-31T13:54:34;20.70;74.80
29775;DHT22;16676;51.202;6.774;2023-03-31T14:03:36;20.70;75.60
29775;DHT22;16676;51.202;6.774;2023-03-31T14:07:42;20.70;75.10
29775;DHT22;16676;51.202;6.774;2023-03-31T14:11:45;20.60;75.70
29775;DHT22;16676;51.202;6.774;2023-03-31T14:15:49;20.60;75.70
29775;DHT22;16676;51.202;6.774;2023-03-31T14:20:13;20.50;76.50
29775;DHT22;16676;51.202;6.774;2023-03-31T14:24:24;20.50;75.00
29775;DHT22;16676;51.202;6.774;2023-03-31T14:28:52;20.50;76.50
29775;DHT22;16676;51.202;6.774;2023-03-31T14:33:07;20.50;76.20
29775;DHT22;16676;51.202;6.774;2023-03-31T14:37:13;20.40;76.70
29775;DHT22;16676;51.202;6.774;2023-03-31T14:41:18;20.40;77.80
29775;DHT22;16676;51.202;6.774;2023-03-31T14:45:30;20.30;77.60
29775;DHT22;16676;51.202;6.774;2023-03-31T14:49:35;20.40;76.80
29775;DHT22;16676;51.202;6.774;2023-03-31T14:53:40;20.40;76.40
29775;DHT22;16676;51.202;6.774;2023-03-31T14:57:44;20.30;76.70
29775;DHT22;16676;51.202;6.774;2023-03-31T15:01:48;20.30;78.20
29775;DHT22;16676;51.202;6.774;2023-03-31T15:05:55;20.30;77.40
29775;DHT22;16676;51.202;6.774;2023-03-31T15:09:59;20.30;77.50
29775;DHT22;16676;51.202;6.774;2023-03-31T15:14:02;20.30;77.70
29775;DHT22;16676;51.202;6.774;2023-03-31T15:18:04;20.30;77.80
29775;DHT22;16676;51.202;6.774;2023-03-31T15:22:11;20.30;78.50
29775;DHT22;16676;51.202;6.774;2023-03-31T15:26:20;20.30;78.20
29775;DHT22;16676;51.202;6.774;2023-03-31T15:30:26;20.30;78.80
29775;DHT22;16676;51.202;6.774;2023-03-31T15:34:30;20.20;78.90
29775;DHT22;16676;51.202;6.774;2023-03-31T15:38:33;20.30;79.10
29775;DHT22;16676;51.202;6.774;2023-03-31T15:42:37;20.20;79.30
29775;DHT22;16676;51.202;6.774;2023-03-31T15:46:56;20.20;79.50
29775;DHT22;16676;51.202;6.774;2023-03-31T15:51:00;20.20;79.70
29775;DHT22;16676;51.202;6.774;2023-03-31T15:55:24;20.20;79.70
29775;DHT22;16676;51.202;6.774;2023-03-31T15:59:30;20.20;80.20
29775;DHT22;16676;51.202;6.774;2023-03-31T16:03:34;20.20;80.50
29775;DHT22;16676;51.202;6.774;2023-03-31T16:07:41;20.20;80.30
29775;DHT22;16676;51.202;6.774;2023-03-31T16:11:47;20.20;80.10
29775;DHT22;16676;51.202;6.774;2023-03-31T16:15:52;20.10;80.50
29775;DHT22;16676;51.202;6.774;2023-03-31T16:19:58;20.10;80.80
29775;DHT22;16676;51.202;6.774;2023-03-31T16:24:02;20.10;80.90
29775;DHT22;16676;51.202;6.774;2023-03-31T16:28:04;20.00;81.10
29775;DHT22;16676;51.202;6.774;2023-03-31T16:32:10;20.00;81.10
29775;DHT22;16676;51.202;6.774;2023-03-31T16:36:12;20.00;81.00
29775;DHT22;16676;51.202;6.774;2023-03-31T16:40:17;20.00;81.50
29775;DHT22;16676;51.202;6.774;2023-03-31T16:44:19;20.00;81.30
29775;DHT22;16676;51.202;6.774;2023-03-31T16:48:24;19.90;81.80
29775;DHT22;16676;51.202;6.774;2023-03-31T16:52:26;19.90;81.90
29775;DHT22;16676;51.202;6.774;2023-03-31T16:56:29;19.90;81.20
29775;DHT22;16676;51.202;6.774;2023-03-31T17:00:32;19.90;80.90
29775;DHT22;16676;51.202;6.774;2023-03-31T17:04:36;19.90;81.20
29775;DHT22;16676;51.202;6.774;2023-03-31T17:08:39;19.90;80.90
29775;DHT22;16676;51.202;6.774;2023-03-31T17:12:42;19.80;80.00
29775;DHT22;16676;51.202;6.774;2023-03-31T17:16:44;19.80;79.90
29775;DHT22;16676;51.202;6.774;2023-03-31T17:20:47;19.80;79.50
29775;DHT22;16676;51.202;6.774;2023-03-31T17:24:49;19.80;80.00
29775;DHT22;16676;51.202;6.774;2023-03-31T17:28:56;19.80;79.70
29775;DHT22;16676;51.202;6.774;2023-03-31T17:33:00;19.80;85.00
29775;DHT22;16676;51.202;6.774;2023-03-31T17:37:03;19.90;85.40
29775;DHT22;16676;51.202;6.774;2023-03-31T17:41:07;19.90;80.90
29775;DHT22;16676;51.202;6.774;2023-03-31T17:45:10;19.90;80.80
29775;DHT22;16676;51.202;6.774;2023-03-31T17:49:12;19.80;82.50
29775;DHT22;16676;51.202;6.774;2023-03-31T17:53:15;19.80;80.90
29775;DHT22;16676;51.202;6.774;2023-03-31T17:57:18;19.80;81.60
29775;DHT22;16676;51.202;6.774;2023-03-31T18:01:20;19.80;82.70
29775;DHT22;16676;51.202;6.774;2023-03-31T18:05:22;19.80;82.60
29775;DHT22;16676;51.202;6.774;2023-03-31T18:09:26;19.70;82.40
29775;DHT22;16676;51.202;6.774;2023-03-31T18:13:28;19.30;75.30
29775;DHT22;16676;51.202;6.774;2023-03-31T18:17:30;18.90;73.60
29775;DHT22;16676;51.202;6.774;2023-03-31T18:21:32;18.60;72.60
29775;DHT22;16676;51.202;6.774;2023-03-31T18:25:36;18.30;71.90
29775;DHT22;16676;51.202;6.774;2023-03-31T18:29:38;18.10;71.80
29775;DHT22;16676;51.202;6.774;2023-03-31T18:33:40;17.90;71.40
29775;DHT22;16676;51.202;6.774;2023-03-31T18:37:42;17.80;71.20
29775;DHT22;16676;51.202;6.774;2023-03-31T18:41:46;17.70;71.20
29775;DHT22;16676;51.202;6.774;2023-03-31T18:45:49;17.60;70.20
29775;DHT22;16676;51.202;6.774;2023-03-31T18:49:51;17.70;73.40
29775;DHT22;16676;51.202;6.774;2023-03-31T18:53:55;17.90;74.20
29775;DHT22;16676;51.202;6.774;2023-03-31T18:57:58;18.20;74.50
29775;DHT22;16676;51.202;6.774;2023-03-31T19:02:00;18.30;74.80
29775;DHT22;16676;51.202;6.774;2023-03-31T19:06:03;18.40;75.30
29775;DHT22;16676;51.202;6.774;2023-03-31T19:10:06;18.40;75.40
29775;DHT22;16676;51.202;6.774;2023-03-31T19:14:10;18.50;76.00
29775;DHT22;16676;51.202;6.774;2023-03-31T19:18:13;18.50;75.80
29775;DHT22;16676;51.202;6.774;2023-03-31T19:22:15;18.50;75.90
29775;DHT22;16676;51.202;6.774;2023-03-31T19:26:17;18.50;76.10
29775;DHT22;16676;51.202;6.774;2023-03-31T19:30:22;18.50;76.10
29775;DHT22;16676;51.202;6.774;2023-03-31T19:34:24;18.50;76.60
29775;DHT22;16676;51.202;6.774;2023-03-31T19:38:26;18.60;76.60
29775;DHT22;16676;51.202;6.774;2023-03-31T19:42:31;18.60;77.00
29775;DHT22;16676;51.202;6.774;2023-03-31T19:46:35;18.60;76.80
29775;DHT22;16676;51.202;6.774;2023-03-31T19:50:36;18.60;77.00
29775;DHT22;16676;51.202;6.774;2023-03-31T19:54:38;18.60;77.60
29775;DHT22;16676;51.202;6.774;2023-03-31T19:58:40;18.60;77.50
29775;DHT22;16676;51.202;6.774;2023-03-31T20:02:44;18.60;77.50
29775;DHT22;16676;51.202;6.774;2023-03-31T20:06:47;18.50;77.50
29775;DHT22;16676;51.202;6.774;2023-03-31T20:10:49;18.50;77.80
29775;DHT22;16676;51.202;6.774;2023-03-31T20:14:51;18.60;76.70
29775;DHT22;16676;51.202;6.774;2023-03-31T20:18:56;18.70;76.50
29775;DHT22;16676;51.202;6.774;2023-03-31T20:22:58;18.70;76.80
29775;DHT22;16676;51.202;6.774;2023-03-31T20:27:00;18.70;77.00
29775;DHT22;16676;51.202;6.774;2023-03-31T20:31:05;18.80;77.70
29775;DHT22;16676;51.202;6.774;2023-03-31T20:35:09;18.80;78.10
29775;DHT22;16676;51.202;6.774;2023-03-31T20:39:12;18.90;77.30
29775;DHT22;16676;51.202;6.774;2023-03-31T20:43:14;18.90;76.70
29775;DHT22;16676;51.202;6.774;2023-03-31T20:47:16;18.80;77.50
29775;DHT22;16676;51.202;6.774;2023-03-31T20:51:21;18.90;77.20
29775;DHT22;16676;51.202;6.774;2023-03-31T20:55:24;18.90;76.90
29775;DHT22;16676;51.202;6.774;2023-03-31T20:59:26;18.90;76.90
29775;DHT22;16676;51.202;6.774;2023-03-31T21:03:29;18.90;76.90
29775;DHT22;16676;51.202;6.774;2023-03-31T21:07:32;18.90;77.60
29775;DHT22;16676;51.202;6.774;2023-03-31T21:11:34;18.90;77.90
29775;DHT22;16676;51.202;6.774;2023-03-31T21:15:36;18.80;77.70
29775;DHT22;16676;51.202;6.774;2023-03-31T21:19:38;18.90;77.10
29775;DHT22;16676;51.202;6.774;2023-03-31T21:23:42;18.80;77.30
29775;DHT22;16676;51.202;6.774;2023-03-31T21:27:44;18.80;77.70
29775;DHT22;16676;51.202;6.774;2023-03-31T21:31:45;18.80;78.30
29775;DHT22;16676;51.202;6.774;2023-03-31T21:35:48;18.80;77.70
29775;DHT22;16676;51.202;6.774;2023-03-31T21:39:51;18.80;77.30
29775;DHT22;16676;51.202;6.774;2023-03-31T21:43:53;18.80;77.10
29775;DHT22;16676;51.202;6.774;2023-03-31T21:47:55;18.80;77.30
29775;DHT22;16676;51.202;6.774;2023-03-31T21:51:57;18.80;78.30
29775;DHT22;16676;51.202;6.774;2023-03-31T21:56:01;18.80;77.60
29775;DHT22;16676;51.202;6.774;2023-03-31T22:00:03;18.80;77.50
29775;DHT22;16676;51.202;6.774;2023-03-31T22:04:11;18.80;77.50
29775;DHT22;16676;51.202;6.774;2023-03-31T22:08:13;18.80;77.40
29775;DHT22;16676;51.202;6.774;2023-03-31T22:12:17;18.80;78.10
29775;DHT22;16676;51.202;6.774;2023-03-31T22:16:20;18.80;77.60
29775;DHT22;16676;51.202;6.774;2023-03-31T22:20:23;18.80;78.00
29775;DHT22;16676;51.202;6.774;2023-03-31T22:24:25;18.80;77.80
29775;DHT22;16676;51.202;6.774;2023-03-31T22:28:29;18.70;77.90
29775;DHT22;16676;51.202;6.774;2023-03-31T22:32:31;18.70;78.20
29775;DHT22;16676;51.202;6.774;2023-03-31T22:36:33;18.70;78.20
29775;DHT22;16676;51.202;6.774;2023-03-31T22:40:35;18.70;78.00
29775;DHT22;16676;51.202;6.774;2023-03-31T22:44:38;18.70;77.60
29775;DHT22;16676;51.202;6.774;2023-03-31T22:48:40;18.70;78.10
29775;DHT22;16676;51.202;6.774;2023-03-31T22:52:42;18.70;78.30
29775;DHT22;16676;51.202;6.774;2023-03-31T22:56:45;18.70;78.40
29775;DHT22;16676;51.202;6.774;2023-03-31T23:00:55;18.70;77.80
29775;DHT22;16676;51.202;6.774;2023-03-31T23:04:57;18.70;77.70
29775;DHT22;16676;51.202;6.774;2023-03-31T23:08:59;18.70;79.00
29775;DHT22;16676;51.202;6.774;2023-03-31T23:13:01;18.70;78.60
29775;DHT22;16676;51.202;6.774;2023-03-31T23:17:04;18.70;78.00
29775;DHT22;16676;51.202;6.774;2023-03-31T23:21:06;18.70;78.70
29775;DHT22;16676;51.202;6.774;2023-03-31T23:25:08;18.70;77.70
29775;DHT22;16676;51.202;6.774;2023-03-31T23:29:10;18.70;79.10
29775;DHT22;16676;51.202;6.774;2023-03-31T23:33:13;18.70;78.40
29775;DHT22;16676;51.202;6.774;2023-03-31T23:37:16;18.70;78.50
29775;DHT22;16676;51.202;6.774;2023-03-31T23:41:19;18.70;78.70
29775;DHT22;16676;51.202;6.774;2023-03-31T23:45:22;18.60;78.40
29775;DHT22;16676;51.202;6.774;2023-03-31T23:49:25;18.60;78.40
29775;DHT22;16676;51.202;6.774;2023-03-31T23:53:28;18.60;79.30
29775;DHT22;16676;51.202;6.774;2023-03-31T23:57:30;18.60;78.70
